sensor_id;sensor_type;location;lat;lon;timestamp;temperature;humidity
1415;DHT22;702;49.466;11.086;2022-09-25T00:02:10;12.90;99.90
1415;DHT22;702;49.466;11.086;2022-09-25T00:04:38;12.80;99.90
1415;DHT22;702;49.466;11.086;2022-09-25T00:07:05;12.90;99.90
1415;DHT22;702;49.466;11.086;2022-09-25T00:09:32;12.90;99.90
1415;DHT22;702;49.466;11.086;2022-09-25T00:11:59;12.90;99.90
1415;DHT22;702;49.466;11.086;2022-09-25T00:14:26;12.90;99.90
1415;DHT22;702;49.466;11.086;2022-09-25T00:16:56;12.90;99.90
1415;DHT22;702;49.466;11.086;2022-09-25T00:19:24;12.90;99.90
1415;DHT22;702;49.466;11.086;2022-09-25T00:22:08;12.90;99.90
1415;DHT22;702;49.466;11.086;2022-09-25T00:24:36;12.90;99.90
1415;DHT22;702;49.466;11.086;2022-09-25T00:27:03;12.90;99.90
1415;DHT22;702;49.466;11.086;2022-09-25T00:29:34;12.80;99.90
1415;DHT22;702;49.466;11.086;2022-09-25T00:32:03;12.80;99.90
1415;DHT22;702;49.466;11.086;2022-09-25T00:34:31;12.80;99.90
1415;DHT22;702;49.466;11.086;2022-09-25T00:36:59;12.70;99.90
1415;DHT22;702;49.466;11.086;2022-09-25T00:39:26;12.70;99.90
1415;DHT22;702;49.466;11.086;2022-09-25T00:41:53;12.70;99.90
1415;DHT22;702;49.466;11.086;2022-09-25T00:47:41;12.60;99.90
1415;DHT22;702;49.466;11.086;2022-09-25T00:50:21;12.70;99.90
1415;DHT22;702;49.466;11.086;2022-09-25T00:52:54;12.60;99.90
1415;DHT22;702;49.466;11.086;2022-09-25T00:55:23;12.60;99.90
1415;DHT22;702;49.466;11.086;2022-09-25T00:57:53;12.60;99.90
1415;DHT22;702;49.466;11.086;2022-09-25T01:00:22;12.60;99.90
1415;DHT22;702;49.466;11.086;2022-09-25T01:02:52;12.60;99.90
1415;DHT22;702;49.466;11.086;2022-09-25T01:05:25;12.60;99.90
1415;DHT22;702;49.466;11.086;2022-09-25T01:07:55;12.60;99.90
1415;DHT22;702;49.466;11.086;2022-09-25T01:10:26;12.50;99.90
1415;DHT22;702;49.466;11.086;2022-09-25T01:12:55;12.50;99.90
1415;DHT22;702;49.466;11.086;2022-09-25T01:15:29;12.50;99.90
1415;DHT22;702;49.466;11.086;2022-09-25T01:18:02;12.50;99.90
1415;DHT22;702;49.466;11.086;2022-09-25T01:21:00;12.40;99.90
1415;DHT22;702;49.466;11.086;2022-09-25T01:27:36;12.40;99.90
1415;DHT22;702;49.466;11.086;2022-09-25T01:30:11;12.40;99.90
1415;DHT22;702;49.466;11.086;2022-09-25T01:32:48;12.40;99.90
1415;DHT22;702;49.466;11.086;2022-09-25T01:35:42;12.40;99.90
1415;DHT22;702;49.466;11.086;2022-09-25T01:38:20;12.40;99.90
1415;DHT22;702;49.466;11.086;2022-09-25T01:40:54;12.40;99.90
1415;DHT22;702;49.466;11.086;2022-09-25T01:43:28;12.40;99.90
1415;DHT22;702;49.466;11.086;2022-09-25T01:46:01;12.40;99.90
1415;DHT22;702;49.466;11.086;2022-09-25T01:48:32;12.40;99.90
1415;DHT22;702;49.466;11.086;2022-09-25T01:51:03;12.40;99.90
1415;DHT22;702;49.466;11.086;2022-09-25T01:53:33;12.40;99.90
1415;DHT22;702;49.466;11.086;2022-09-25T01:56:09;12.30;99.90
1415;DHT22;702;49.466;11.086;2022-09-25T01:58:41;12.30;99.90
1415;DHT22;702;49.466;11.086;2022-09-25T02:01:17;12.40;99.90
1415;DHT22;702;49.466;11.086;2022-09-25T02:03:50;12.30;99.90
1415;DHT22;702;49.466;11.086;2022-09-25T02:06:23;12.30;99.90
1415;DHT22;702;49.466;11.086;2022-09-25T02:08:53;12.30;99.90
1415;DHT22;702;49.466;11.086;2022-09-25T02:11:26;12.40;99.90
1415;DHT22;702;49.466;11.086;2022-09-25T02:14:00;12.40;99.90
1415;DHT22;702;49.466;11.086;2022-09-25T02:16:34;12.40;99.90
1415;DHT22;702;49.466;11.086;2022-09-25T02:19:03;12.40;99.90
1415;DHT22;702;49.466;11.086;2022-09-25T02:21:53;12.40;99.90
1415;DHT22;702;49.466;11.086;2022-09-25T02:24:28;12.30;99.90
1415;DHT22;702;49.466;11.086;2022-09-25T02:27:00;12.30;99.90
1415;DHT22;702;49.466;11.086;2022-09-25T02:29:28;12.20;99.90
1415;DHT22;702;49.466;11.086;2022-09-25T02:31:59;12.20;99.90
1415;DHT22;702;49.466;11.086;2022-09-25T02:34:30;12.20;99.90
1415;DHT22;702;49.466;11.086;2022-09-25T02:36:58;12.20;99.90
1415;DHT22;702;49.466;11.086;2022-09-25T02:39:28;12.20;99.90
1415;DHT22;702;49.466;11.086;2022-09-25T02:42:18;12.10;99.90
1415;DHT22;702;49.466;11.086;2022-09-25T02:45:03;12.00;99.90
1415;DHT22;702;49.466;11.086;2022-09-25T02:47:42;12.00;99.90
1415;DHT22;702;49.466;11.086;2022-09-25T02:50:20;12.10;99.90
1415;DHT22;702;49.466;11.086;2022-09-25T02:52:57;12.10;99.90
1415;DHT22;702;49.466;11.086;2022-09-25T02:55:34;12.10;99.90
1415;DHT22;702;49.466;11.086;2022-09-25T02:58:08;12.10;99.90
1415;DHT22;702;49.466;11.086;2022-09-25T03:00:41;12.10;99.90
1415;DHT22;702;49.466;11.086;2022-09-25T03:03:15;12.10;99.90
1415;DHT22;702;49.466;11.086;2022-09-25T03:05:44;12.10;99.90
1415;DHT22;702;49.466;11.086;2022-09-25T03:08:12;12.10;99.90
1415;DHT22;702;49.466;11.086;2022-09-25T03:10:57;12.20;99.90
1415;DHT22;702;49.466;11.086;2022-09-25T03:13:26;12.20;99.90
1415;DHT22;702;49.466;11.086;2022-09-25T03:15:59;12.10;99.90
1415;DHT22;702;49.466;11.086;2022-09-25T03:18:29;12.20;99.90
1415;DHT22;702;49.466;11.086;2022-09-25T03:20:57;12.20;99.90
1415;DHT22;702;49.466;11.086;2022-09-25T03:23:25;12.20;99.90
1415;DHT22;702;49.466;11.086;2022-09-25T03:25:52;12.10;99.90
1415;DHT22;702;49.466;11.086;2022-09-25T03:28:21;12.20;99.90
1415;DHT22;702;49.466;11.086;2022-09-25T03:30:56;12.20;99.90
1415;DHT22;702;49.466;11.086;2022-09-25T03:33:26;12.10;99.90
1415;DHT22;702;49.466;11.086;2022-09-25T03:36:05;12.00;99.90
1415;DHT22;702;49.466;11.086;2022-09-25T03:38:34;12.10;99.90
1415;DHT22;702;49.466;11.086;2022-09-25T03:41:02;12.20;99.90
1415;DHT22;702;49.466;11.086;2022-09-25T03:43:31;12.20;99.90
1415;DHT22;702;49.466;11.086;2022-09-25T03:46:01;12.30;99.90
1415;DHT22;702;49.466;11.086;2022-09-25T03:48:29;12.30;99.90
1415;DHT22;702;49.466;11.086;2022-09-25T03:50:56;12.30;99.90
1415;DHT22;702;49.466;11.086;2022-09-25T03:53:27;12.20;99.90
1415;DHT22;702;49.466;11.086;2022-09-25T03:55:56;12.20;99.90
1415;DHT22;702;49.466;11.086;2022-09-25T03:58:23;12.20;99.90
1415;DHT22;702;49.466;11.086;2022-09-25T04:00:51;12.10;99.90
1415;DHT22;702;49.466;11.086;2022-09-25T04:03:22;12.10;99.90
1415;DHT22;702;49.466;11.086;2022-09-25T04:05:49;12.10;99.90
1415;DHT22;702;49.466;11.086;2022-09-25T04:08:17;12.10;99.90
1415;DHT22;702;49.466;11.086;2022-09-25T04:10:45;12.10;99.90
1415;DHT22;702;49.466;11.086;2022-09-25T04:13:13;12.10;99.90
1415;DHT22;702;49.466;11.086;2022-09-25T04:15:41;12.00;99.90
1415;DHT22;702;49.466;11.086;2022-09-25T04:18:09;12.00;99.90
1415;DHT22;702;49.466;11.086;2022-09-25T04:20:36;12.10;99.90
1415;DHT22;702;49.466;11.086;2022-09-25T04:23:03;12.00;99.90
1415;DHT22;702;49.466;11.086;2022-09-25T04:25:30;12.00;99.90
1415;DHT22;702;49.466;11.086;2022-09-25T04:27:59;12.00;99.90
1415;DHT22;702;49.466;11.086;2022-09-25T04:30:28;11.90;99.90
1415;DHT22;702;49.466;11.086;2022-09-25T04:32:55;12.00;99.90
1415;DHT22;702;49.466;11.086;2022-09-25T04:35:40;12.00;99.90
1415;DHT22;702;49.466;11.086;2022-09-25T04:38:07;12.00;99.90
1415;DHT22;702;49.466;11.086;2022-09-25T04:40:35;12.00;99.90
1415;DHT22;702;49.466;11.086;2022-09-25T04:43:05;12.00;99.90
1415;DHT22;702;49.466;11.086;2022-09-25T04:45:34;12.00;99.90
1415;DHT22;702;49.466;11.086;2022-09-25T04:48:03;11.90;99.90
1415;DHT22;702;49.466;11.086;2022-09-25T04:50:31;11.90;99.90
1415;DHT22;702;49.466;11.086;2022-09-25T04:52:59;11.90;99.90
1415;DHT22;702;49.466;11.086;2022-09-25T04:55:27;12.00;99.90
1415;DHT22;702;49.466;11.086;2022-09-25T04:57:56;12.00;99.90
1415;DHT22;702;49.466;11.086;2022-09-25T05:00:27;12.00;99.90
1415;DHT22;702;49.466;11.086;2022-09-25T05:02:56;12.00;99.90
1415;DHT22;702;49.466;11.086;2022-09-25T05:05:23;11.90;99.90
1415;DHT22;702;49.466;11.086;2022-09-25T05:07:56;11.90;99.90
1415;DHT22;702;49.466;11.086;2022-09-25T05:10:26;11.90;99.90
1415;DHT22;702;49.466;11.086;2022-09-25T05:12:55;11.90;99.90
1415;DHT22;702;49.466;11.086;2022-09-25T05:15:25;11.90;99.90
1415;DHT22;702;49.466;11.086;2022-09-25T05:17:58;11.90;99.90
1415;DHT22;702;49.466;11.086;2022-09-25T05:20:26;11.90;99.90
1415;DHT22;702;49.466;11.086;2022-09-25T05:22:54;12.00;99.90
1415;DHT22;702;49.466;11.086;2022-09-25T05:25:21;12.00;99.90
1415;DHT22;702;49.466;11.086;2022-09-25T05:27:50;12.10;99.90
1415;DHT22;702;49.466;11.086;2022-09-25T05:30:20;12.00;99.90
1415;DHT22;702;49.466;11.086;2022-09-25T05:32:50;11.90;99.90
1415;DHT22;702;49.466;11.086;2022-09-25T05:35:18;12.00;99.90
1415;DHT22;702;49.466;11.086;2022-09-25T05:37:46;12.00;99.90
1415;DHT22;702;49.466;11.086;2022-09-25T05:40:14;12.00;99.90
1415;DHT22;702;49.466;11.086;2022-09-25T05:42:42;12.10;99.90
1415;DHT22;702;49.466;11.086;2022-09-25T05:45:11;12.10;99.90
1415;DHT22;702;49.466;11.086;2022-09-25T05:47:38;12.10;99.90
1415;DHT22;702;49.466;11.086;2022-09-25T05:50:08;12.00;99.90
1415;DHT22;702;49.466;11.086;2022-09-25T05:52:36;12.00;99.90
1415;DHT22;702;49.466;11.086;2022-09-25T05:55:05;12.00;99.90
1415;DHT22;702;49.466;11.086;2022-09-25T05:57:35;12.00;99.90
1415;DHT22;702;49.466;11.086;2022-09-25T06:00:04;12.00;99.90
1415;DHT22;702;49.466;11.086;2022-09-25T06:02:33;12.10;99.90
1415;DHT22;702;49.466;11.086;2022-09-25T06:05:00;12.10;99.90
1415;DHT22;702;49.466;11.086;2022-09-25T06:07:29;12.20;99.90
1415;DHT22;702;49.466;11.086;2022-09-25T06:09:56;12.30;99.90
1415;DHT22;702;49.466;11.086;2022-09-25T06:12:23;12.30;99.90
1415;DHT22;702;49.466;11.086;2022-09-25T06:14:51;12.30;99.90
1415;DHT22;702;49.466;11.086;2022-09-25T06:17:18;12.40;99.90
1415;DHT22;702;49.466;11.086;2022-09-25T06:19:45;12.50;99.90
1415;DHT22;702;49.466;11.086;2022-09-25T06:22:12;12.60;99.90
1415;DHT22;702;49.466;11.086;2022-09-25T06:24:41;12.60;99.90
1415;DHT22;702;49.466;11.086;2022-09-25T06:27:08;12.50;99.90
1415;DHT22;702;49.466;11.086;2022-09-25T06:29:35;12.40;99.90
1415;DHT22;702;49.466;11.086;2022-09-25T06:32:02;12.50;99.90
1415;DHT22;702;49.466;11.086;2022-09-25T06:34:30;12.50;99.90
1415;DHT22;702;49.466;11.086;2022-09-25T06:36:59;12.50;99.90
1415;DHT22;702;49.466;11.086;2022-09-25T06:39:26;12.60;99.90
1415;DHT22;702;49.466;11.086;2022-09-25T06:41:54;12.70;99.90
1415;DHT22;702;49.466;11.086;2022-09-25T06:44:21;12.80;99.90
1415;DHT22;702;49.466;11.086;2022-09-25T06:46:49;12.80;99.90
1415;DHT22;702;49.466;11.086;2022-09-25T06:49:19;12.80;99.90
1415;DHT22;702;49.466;11.086;2022-09-25T06:51:46;12.90;99.90
1415;DHT22;702;49.466;11.086;2022-09-25T06:54:16;12.80;99.90
1415;DHT22;702;49.466;11.086;2022-09-25T06:56:43;12.70;99.90
1415;DHT22;702;49.466;11.086;2022-09-25T06:59:11;12.80;99.90
1415;DHT22;702;49.466;11.086;2022-09-25T07:01:38;12.90;99.90
1415;DHT22;702;49.466;11.086;2022-09-25T07:04:05;13.00;99.90
1415;DHT22;702;49.466;11.086;2022-09-25T07:06:31;13.20;99.90
1415;DHT22;702;49.466;11.086;2022-09-25T07:09:00;13.50;99.20
1415;DHT22;702;49.466;11.086;2022-09-25T07:11:28;13.60;98.90
1415;DHT22;702;49.466;11.086;2022-09-25T07:13:56;13.60;97.90
1415;DHT22;702;49.466;11.086;2022-09-25T07:16:27;13.70;97.70
1415;DHT22;702;49.466;11.086;2022-09-25T07:18:56;13.60;99.30
1415;DHT22;702;49.466;11.086;2022-09-25T07:21:25;13.70;97.60
1415;DHT22;702;49.466;11.086;2022-09-25T07:23:55;13.80;97.10
1415;DHT22;702;49.466;11.086;2022-09-25T07:26:25;14.00;97.40
1415;DHT22;702;49.466;11.086;2022-09-25T07:28:56;14.00;96.80
1415;DHT22;702;49.466;11.086;2022-09-25T07:31:26;14.10;96.10
1415;DHT22;702;49.466;11.086;2022-09-25T07:33:56;14.30;95.70
1415;DHT22;702;49.466;11.086;2022-09-25T07:36:24;14.40;95.10
1415;DHT22;702;49.466;11.086;2022-09-25T07:38:52;14.50;94.10
1415;DHT22;702;49.466;11.086;2022-09-25T07:41:20;14.70;93.30
1415;DHT22;702;49.466;11.086;2022-09-25T07:43:50;14.90;92.60
1415;DHT22;702;49.466;11.086;2022-09-25T07:46:18;15.00;92.40
1415;DHT22;702;49.466;11.086;2022-09-25T07:48:48;15.20;91.70
1415;DHT22;702;49.466;11.086;2022-09-25T07:51:17;15.30;91.80
1415;DHT22;702;49.466;11.086;2022-09-25T07:53:46;15.20;91.60
1415;DHT22;702;49.466;11.086;2022-09-25T07:56:14;15.50;91.40
1415;DHT22;702;49.466;11.086;2022-09-25T07:58:45;15.60;90.80
1415;DHT22;702;49.466;11.086;2022-09-25T08:01:12;15.60;90.50
1415;DHT22;702;49.466;11.086;2022-09-25T08:03:39;15.70;90.50
1415;DHT22;702;49.466;11.086;2022-09-25T08:06:09;15.60;90.60
1415;DHT22;702;49.466;11.086;2022-09-25T08:08:38;15.80;90.00
1415;DHT22;702;49.466;11.086;2022-09-25T08:11:08;15.90;90.00
1415;DHT22;702;49.466;11.086;2022-09-25T08:13:37;16.00;90.10
1415;DHT22;702;49.466;11.086;2022-09-25T08:16:05;15.90;89.80
1415;DHT22;702;49.466;11.086;2022-09-25T08:18:38;15.90;89.20
1415;DHT22;702;49.466;11.086;2022-09-25T08:21:08;16.00;89.50
1415;DHT22;702;49.466;11.086;2022-09-25T08:23:35;15.60;89.30
1415;DHT22;702;49.466;11.086;2022-09-25T08:26:03;15.70;90.20
1415;DHT22;702;49.466;11.086;2022-09-25T08:28:30;15.50;90.30
1415;DHT22;702;49.466;11.086;2022-09-25T08:30:57;15.40;90.40
1415;DHT22;702;49.466;11.086;2022-09-25T08:33:25;15.50;90.40
1415;DHT22;702;49.466;11.086;2022-09-25T08:35:56;15.50;90.40
1415;DHT22;702;49.466;11.086;2022-09-25T08:38:26;15.40;90.20
1415;DHT22;702;49.466;11.086;2022-09-25T08:40:55;15.30;90.40
1415;DHT22;702;49.466;11.086;2022-09-25T08:43:25;15.30;90.30
1415;DHT22;702;49.466;11.086;2022-09-25T08:45:55;15.30;90.80
1415;DHT22;702;49.466;11.086;2022-09-25T08:48:46;15.30;91.20
1415;DHT22;702;49.466;11.086;2022-09-25T08:51:33;15.40;90.80
1415;DHT22;702;49.466;11.086;2022-09-25T08:54:04;15.40;90.80
1415;DHT22;702;49.466;11.086;2022-09-25T08:56:33;15.40;90.80
1415;DHT22;702;49.466;11.086;2022-09-25T08:59:05;15.80;90.20
1415;DHT22;702;49.466;11.086;2022-09-25T09:01:42;15.60;90.10
1415;DHT22;702;49.466;11.086;2022-09-25T09:04:16;15.80;90.10
1415;DHT22;702;49.466;11.086;2022-09-25T09:06:48;15.70;90.10
1415;DHT22;702;49.466;11.086;2022-09-25T09:09:25;15.60;90.30
1415;DHT22;702;49.466;11.086;2022-09-25T09:11:59;15.60;90.30
1415;DHT22;702;49.466;11.086;2022-09-25T09:14:30;15.80;89.80
1415;DHT22;702;49.466;11.086;2022-09-25T09:17:03;15.90;89.70
1415;DHT22;702;49.466;11.086;2022-09-25T09:19:32;15.70;89.70
1415;DHT22;702;49.466;11.086;2022-09-25T09:22:03;15.60;90.00
1415;DHT22;702;49.466;11.086;2022-09-25T09:24:45;15.80;89.50
1415;DHT22;702;49.466;11.086;2022-09-25T09:27:30;15.80;89.30
1415;DHT22;702;49.466;11.086;2022-09-25T09:30:11;15.70;89.10
1415;DHT22;702;49.466;11.086;2022-09-25T09:35:45;15.90;89.20
1415;DHT22;702;49.466;11.086;2022-09-25T09:38:22;16.00;88.30
1415;DHT22;702;49.466;11.086;2022-09-25T09:41:07;16.20;87.90
1415;DHT22;702;49.466;11.086;2022-09-25T09:43:53;16.30;88.30
1415;DHT22;702;49.466;11.086;2022-09-25T09:46:33;16.40;88.00
1415;DHT22;702;49.466;11.086;2022-09-25T09:49:11;16.40;87.80
1415;DHT22;702;49.466;11.086;2022-09-25T09:51:43;16.80;86.80
1415;DHT22;702;49.466;11.086;2022-09-25T09:54:18;16.80;86.40
1415;DHT22;702;49.466;11.086;2022-09-25T09:56:50;17.10;86.80
1415;DHT22;702;49.466;11.086;2022-09-25T09:59:20;17.00;86.00
1415;DHT22;702;49.466;11.086;2022-09-25T10:01:56;17.00;86.70
1415;DHT22;702;49.466;11.086;2022-09-25T10:04:32;17.40;85.60
1415;DHT22;702;49.466;11.086;2022-09-25T10:07:04;17.70;84.60
1415;DHT22;702;49.466;11.086;2022-09-25T10:09:33;17.50;84.30
1415;DHT22;702;49.466;11.086;2022-09-25T10:12:06;17.10;84.70
1415;DHT22;702;49.466;11.086;2022-09-25T10:14:40;17.20;84.40
1415;DHT22;702;49.466;11.086;2022-09-25T10:17:09;17.10;84.40
1415;DHT22;702;49.466;11.086;2022-09-25T10:19:48;17.50;84.00
1415;DHT22;702;49.466;11.086;2022-09-25T10:22:20;17.50;84.10
1415;DHT22;702;49.466;11.086;2022-09-25T10:24:55;17.90;83.40
1415;DHT22;702;49.466;11.086;2022-09-25T10:27:30;18.00;83.10
1415;DHT22;702;49.466;11.086;2022-09-25T10:32:50;18.40;81.70
1415;DHT22;702;49.466;11.086;2022-09-25T10:35:25;18.60;81.40
1415;DHT22;702;49.466;11.086;2022-09-25T10:37:56;18.50;81.70
1415;DHT22;702;49.466;11.086;2022-09-25T10:40:28;19.20;80.10
1415;DHT22;702;49.466;11.086;2022-09-25T10:43:05;19.40;79.30
1415;DHT22;702;49.466;11.086;2022-09-25T10:45:42;19.40;78.20
1415;DHT22;702;49.466;11.086;2022-09-25T10:48:28;19.10;78.90
1415;DHT22;702;49.466;11.086;2022-09-25T10:51:14;18.60;78.30
1415;DHT22;702;49.466;11.086;2022-09-25T10:53:44;18.30;79.60
1415;DHT22;702;49.466;11.086;2022-09-25T10:56:14;18.70;78.60
1415;DHT22;702;49.466;11.086;2022-09-25T10:58:50;19.10;78.20
1415;DHT22;702;49.466;11.086;2022-09-25T11:01:20;19.10;78.10
1415;DHT22;702;49.466;11.086;2022-09-25T11:03:56;19.40;77.20
1415;DHT22;702;49.466;11.086;2022-09-25T11:06:25;19.30;76.80
1415;DHT22;702;49.466;11.086;2022-09-25T11:09:02;18.90;76.20
1415;DHT22;702;49.466;11.086;2022-09-25T11:11:32;18.50;76.80
1415;DHT22;702;49.466;11.086;2022-09-25T11:14:04;18.20;77.10
1415;DHT22;702;49.466;11.086;2022-09-25T11:16:45;18.50;77.00
1415;DHT22;702;49.466;11.086;2022-09-25T11:19:15;19.00;76.60
1415;DHT22;702;49.466;11.086;2022-09-25T11:21:53;19.10;76.50
1415;DHT22;702;49.466;11.086;2022-09-25T11:24:29;19.40;75.30
1415;DHT22;702;49.466;11.086;2022-09-25T11:27:10;19.60;74.80
1415;DHT22;702;49.466;11.086;2022-09-25T11:29:49;19.40;74.10
1415;DHT22;702;49.466;11.086;2022-09-25T11:32:25;19.30;73.90
1415;DHT22;702;49.466;11.086;2022-09-25T11:35:05;19.20;73.80
1415;DHT22;702;49.466;11.086;2022-09-25T11:37:50;19.50;74.40
1415;DHT22;702;49.466;11.086;2022-09-25T11:40:31;19.70;73.50
1415;DHT22;702;49.466;11.086;2022-09-25T11:43:32;20.00;72.80
1415;DHT22;702;49.466;11.086;2022-09-25T11:46:19;19.90;72.60
1415;DHT22;702;49.466;11.086;2022-09-25T11:48:58;20.10;72.00
1415;DHT22;702;49.466;11.086;2022-09-25T11:51:46;19.70;71.80
1415;DHT22;702;49.466;11.086;2022-09-25T11:58:16;18.10;76.00
1415;DHT22;702;49.466;11.086;2022-09-25T12:00:56;16.70;81.20
1415;DHT22;702;49.466;11.086;2022-09-25T12:03:42;16.10;84.40
1415;DHT22;702;49.466;11.086;2022-09-25T12:06:32;15.40;86.10
1415;DHT22;702;49.466;11.086;2022-09-25T12:09:36;15.10;88.40
1415;DHT22;702;49.466;11.086;2022-09-25T12:12:16;14.90;88.00
1415;DHT22;702;49.466;11.086;2022-09-25T12:14:56;15.10;87.90
1415;DHT22;702;49.466;11.086;2022-09-25T12:17:34;15.30;86.80
1415;DHT22;702;49.466;11.086;2022-09-25T12:20:15;15.60;86.20
1415;DHT22;702;49.466;11.086;2022-09-25T12:22:56;15.90;85.20
1415;DHT22;702;49.466;11.086;2022-09-25T12:25:39;16.20;84.80
1415;DHT22;702;49.466;11.086;2022-09-25T12:28:24;16.10;85.00
1415;DHT22;702;49.466;11.086;2022-09-25T12:31:04;16.00;85.40
1415;DHT22;702;49.466;11.086;2022-09-25T12:33:44;16.00;85.80
1415;DHT22;702;49.466;11.086;2022-09-25T12:36:21;16.00;86.00
1415;DHT22;702;49.466;11.086;2022-09-25T12:38:53;16.10;86.50
1415;DHT22;702;49.466;11.086;2022-09-25T12:41:25;16.30;86.10
1415;DHT22;702;49.466;11.086;2022-09-25T12:44:05;16.50;86.40
1415;DHT22;702;49.466;11.086;2022-09-25T12:46:41;16.80;86.30
1415;DHT22;702;49.466;11.086;2022-09-25T12:49:13;17.40;85.40
1415;DHT22;702;49.466;11.086;2022-09-25T12:51:46;17.70;84.40
1415;DHT22;702;49.466;11.086;2022-09-25T12:54:23;17.90;84.20
1415;DHT22;702;49.466;11.086;2022-09-25T12:56:56;18.00;83.00
1415;DHT22;702;49.466;11.086;2022-09-25T12:59:28;18.20;83.60
1415;DHT22;702;49.466;11.086;2022-09-25T13:02:03;18.40;82.80
1415;DHT22;702;49.466;11.086;2022-09-25T13:04:47;18.30;82.30
1415;DHT22;702;49.466;11.086;2022-09-25T13:07:23;18.20;82.50
1415;DHT22;702;49.466;11.086;2022-09-25T13:09:53;17.90;82.90
1415;DHT22;702;49.466;11.086;2022-09-25T13:12:32;17.50;84.00
1415;DHT22;702;49.466;11.086;2022-09-25T13:15:04;17.40;84.10
1415;DHT22;702;49.466;11.086;2022-09-25T13:17:34;17.50;83.40
1415;DHT22;702;49.466;11.086;2022-09-25T13:20:51;17.70;83.50
1415;DHT22;702;49.466;11.086;2022-09-25T13:23:29;17.30;83.80
1415;DHT22;702;49.466;11.086;2022-09-25T13:26:01;16.80;84.80
1415;DHT22;702;49.466;11.086;2022-09-25T13:28:37;16.40;85.30
1415;DHT22;702;49.466;11.086;2022-09-25T13:31:08;15.80;86.10
1415;DHT22;702;49.466;11.086;2022-09-25T13:33:48;15.50;88.10
1415;DHT22;702;49.466;11.086;2022-09-25T13:36:36;15.00;91.70
1415;DHT22;702;49.466;11.086;2022-09-25T13:39:18;14.40;97.70
1415;DHT22;702;49.466;11.086;2022-09-25T13:42:11;13.90;99.90
1415;DHT22;702;49.466;11.086;2022-09-25T13:45:03;13.60;99.90
1415;DHT22;702;49.466;11.086;2022-09-25T13:48:03;13.40;99.90
1415;DHT22;702;49.466;11.086;2022-09-25T13:50:38;13.30;99.90
1415;DHT22;702;49.466;11.086;2022-09-25T13:56:27;13.40;99.90
1415;DHT22;702;49.466;11.086;2022-09-25T13:59:35;13.40;99.90
1415;DHT22;702;49.466;11.086;2022-09-25T14:02:33;13.50;99.90
1415;DHT22;702;49.466;11.086;2022-09-25T14:05:05;13.70;99.90
1415;DHT22;702;49.466;11.086;2022-09-25T14:07:33;13.90;99.90
1415;DHT22;702;49.466;11.086;2022-09-25T14:10:02;14.00;99.90
1415;DHT22;702;49.466;11.086;2022-09-25T14:12:40;14.00;99.90
1415;DHT22;702;49.466;11.086;2022-09-25T14:15:19;13.80;99.90
1415;DHT22;702;49.466;11.086;2022-09-25T14:17:49;13.90;99.90
1415;DHT22;702;49.466;11.086;2022-09-25T14:20:36;13.80;99.90
1415;DHT22;702;49.466;11.086;2022-09-25T14:23:10;13.80;99.90
1415;DHT22;702;49.466;11.086;2022-09-25T14:25:40;13.80;99.90
1415;DHT22;702;49.466;11.086;2022-09-25T14:28:21;13.80;99.90
1415;DHT22;702;49.466;11.086;2022-09-25T14:31:00;13.80;99.90
1415;DHT22;702;49.466;11.086;2022-09-25T14:34:22;13.90;99.90
1415;DHT22;702;49.466;11.086;2022-09-25T14:37:19;14.00;99.90
1415;DHT22;702;49.466;11.086;2022-09-25T14:40:03;14.10;99.90
1415;DHT22;702;49.466;11.086;2022-09-25T14:42:56;14.30;99.90
1415;DHT22;702;49.466;11.086;2022-09-25T14:45:43;14.50;99.90
1415;DHT22;702;49.466;11.086;2022-09-25T14:48:18;14.70;99.90
1415;DHT22;702;49.466;11.086;2022-09-25T14:50:49;14.70;99.80
1415;DHT22;702;49.466;11.086;2022-09-25T14:53:22;14.80;99.90
1415;DHT22;702;49.466;11.086;2022-09-25T14:55:53;14.90;99.90
1415;DHT22;702;49.466;11.086;2022-09-25T14:58:23;14.90;99.30
1415;DHT22;702;49.466;11.086;2022-09-25T15:00:56;14.90;98.50
1415;DHT22;702;49.466;11.086;2022-09-25T15:03:41;14.90;98.70
1415;DHT22;702;49.466;11.086;2022-09-25T15:06:11;14.90;99.90
1415;DHT22;702;49.466;11.086;2022-09-25T15:08:40;14.90;99.90
1415;DHT22;702;49.466;11.086;2022-09-25T15:11:11;15.20;99.90
1415;DHT22;702;49.466;11.086;2022-09-25T15:13:39;15.20;98.20
1415;DHT22;702;49.466;11.086;2022-09-25T15:16:12;15.10;97.20
1415;DHT22;702;49.466;11.086;2022-09-25T15:19:01;15.00;99.40
1415;DHT22;702;49.466;11.086;2022-09-25T15:21:30;15.00;99.40
1415;DHT22;702;49.466;11.086;2022-09-25T15:24:02;14.90;99.90
1415;DHT22;702;49.466;11.086;2022-09-25T15:26:33;14.80;97.10
1415;DHT22;702;49.466;11.086;2022-09-25T15:29:12;14.70;97.30
1415;DHT22;702;49.466;11.086;2022-09-25T15:31:44;14.60;99.40
1415;DHT22;702;49.466;11.086;2022-09-25T15:34:20;14.60;99.90
1415;DHT22;702;49.466;11.086;2022-09-25T15:36:48;14.70;99.90
1415;DHT22;702;49.466;11.086;2022-09-25T15:39:21;14.60;99.90
1415;DHT22;702;49.466;11.086;2022-09-25T15:41:49;14.50;99.40
1415;DHT22;702;49.466;11.086;2022-09-25T15:44:18;14.50;99.90
1415;DHT22;702;49.466;11.086;2022-09-25T15:46:52;14.60;99.90
1415;DHT22;702;49.466;11.086;2022-09-25T15:49:24;14.50;99.90
1415;DHT22;702;49.466;11.086;2022-09-25T15:51:55;14.40;99.90
1415;DHT22;702;49.466;11.086;2022-09-25T15:54:34;14.30;99.90
1415;DHT22;702;49.466;11.086;2022-09-25T15:57:06;14.30;99.90
1415;DHT22;702;49.466;11.086;2022-09-25T15:59:39;14.20;99.90
1415;DHT22;702;49.466;11.086;2022-09-25T16:02:32;14.20;99.90
1415;DHT22;702;49.466;11.086;2022-09-25T16:05:24;14.10;99.90
1415;DHT22;702;49.466;11.086;2022-09-25T16:08:14;14.10;99.90
1415;DHT22;702;49.466;11.086;2022-09-25T16:10:43;14.00;99.90
1415;DHT22;702;49.466;11.086;2022-09-25T16:13:18;14.10;99.90
1415;DHT22;702;49.466;11.086;2022-09-25T16:15:48;14.10;99.90
1415;DHT22;702;49.466;11.086;2022-09-25T16:18:26;14.20;99.90
1415;DHT22;702;49.466;11.086;2022-09-25T16:21:17;14.20;99.90
1415;DHT22;702;49.466;11.086;2022-09-25T16:23:52;14.20;99.90
1415;DHT22;702;49.466;11.086;2022-09-25T16:26:23;14.20;99.90
1415;DHT22;702;49.466;11.086;2022-09-25T16:29:03;14.20;99.90
1415;DHT22;702;49.466;11.086;2022-09-25T16:31:33;14.10;99.90
1415;DHT22;702;49.466;11.086;2022-09-25T16:34:14;14.00;99.90
1415;DHT22;702;49.466;11.086;2022-09-25T16:36:44;14.00;99.90
1415;DHT22;702;49.466;11.086;2022-09-25T16:39:24;13.90;99.90
1415;DHT22;702;49.466;11.086;2022-09-25T16:41:52;13.90;99.90
1415;DHT22;702;49.466;11.086;2022-09-25T16:44:21;13.80;99.90
1415;DHT22;702;49.466;11.086;2022-09-25T16:47:11;13.70;99.90
1415;DHT22;702;49.466;11.086;2022-09-25T16:49:42;13.70;99.90
1415;DHT22;702;49.466;11.086;2022-09-25T16:52:15;13.60;99.90
1415;DHT22;702;49.466;11.086;2022-09-25T16:54:46;13.70;99.90
1415;DHT22;702;49.466;11.086;2022-09-25T16:57:15;13.70;99.90
1415;DHT22;702;49.466;11.086;2022-09-25T16:59:42;13.70;99.90
1415;DHT22;702;49.466;11.086;2022-09-25T17:02:20;13.70;99.90
1415;DHT22;702;49.466;11.086;2022-09-25T17:05:00;13.70;99.90